Time;durP1;ratioP1;P1;durP2;ratioP2;P2;SDS_P1;SDS_P2;PMS_P1;PMS_P2;Temp;Humidity;BMP_temperature;BMP_pressure;BME280_temperature;BME280_humidity;BME280_pressure;Samples;Min_cycle;Max_cycle;Signal;HPM_P1;HPM_P2
2022/08/22 00:01:47;;;;;;;7.18;1.52;;;14.30;65.00;;;;;;4211784;28;20110;-82
2022/08/22 00:04:00;;;;;;;3.42;1.20;;;14.20;64.90;;;;;;4214425;28;20031;-83
2022/08/22 00:06:07;;;;;;;6.20;1.50;;;14.20;64.90;;;;;;4210104;28;20076;-84
2022/08/22 00:08:15;;;;;;;6.20;1.52;;;14.20;65.10;;;;;;4210573;28;20032;-83
2022/08/22 00:10:19;;;;;;;5.50;1.75;;;14.10;65.10;;;;;;4211073;28;20035;-83
2022/08/22 00:12:49;;;;;;;6.20;1.40;;;14.20;65.20;;;;;;4211677;28;20020;-83
2022/08/22 00:15:00;;;;;;;4.53;1.45;;;14.10;65.80;;;;;;4212006;28;20077;-84
2022/08/22 00:17:16;;;;;;;2.90;1.13;;;14.10;65.50;;;;;;4214875;28;20082;-83
2022/08/22 00:19:26;;;;;;;5.60;1.70;;;14.10;65.40;;;;;;4212870;28;20039;-83
2022/08/22 00:21:59;;;;;;;3.15;1.33;;;14.00;65.40;;;;;;4212597;28;20020;-83
2022/08/22 00:24:23;;;;;;;6.15;1.38;;;14.00;65.90;;;;;;4194137;28;20041;-83
2022/08/22 00:26:44;;;;;;;6.53;1.40;;;14.00;65.90;;;;;;4217307;28;20039;-84
2022/08/22 00:29:16;;;;;;;4.85;1.48;;;14.00;65.90;;;;;;4215212;28;20042;-84
2022/08/22 00:31:31;;;;;;;4.43;1.48;;;14.00;66.00;;;;;;4193998;28;20040;-83
2022/08/22 00:33:46;;;;;;;6.60;1.45;;;13.90;65.60;;;;;;4212768;28;20163;-83
2022/08/22 00:35:52;;;;;;;11.25;2.28;;;13.90;65.80;;;;;;4195143;28;20162;-84
2022/08/22 00:38:04;;;;;;;4.57;1.65;;;13.90;65.80;;;;;;4209480;28;20032;-83
2022/08/22 00:40:33;;;;;;;7.65;1.67;;;13.80;66.10;;;;;;4209446;28;20032;-84
2022/08/22 00:43:06;;;;;;;7.60;1.60;;;13.80;66.40;;;;;;4209819;28;20035;-83
2022/08/22 00:45:13;;;;;;;4.13;1.33;;;13.80;66.50;;;;;;4195359;28;20117;-84
2022/08/22 00:47:28;;;;;;;2.92;1.45;;;13.80;66.20;;;;;;4207438;28;20373;-84
2022/08/22 00:50:13;;;;;;;6.47;1.50;;;13.80;66.30;;;;;;4213262;28;20466;-83
2022/08/22 00:52:38;;;;;;;7.68;1.50;;;13.70;66.90;;;;;;4206053;28;20103;-84
2022/08/22 00:54:59;;;;;;;6.13;1.60;;;13.70;66.50;;;;;;4208886;28;20032;-84
2022/08/22 00:57:08;;;;;;;8.57;1.48;;;13.60;66.40;;;;;;4187724;28;20040;-84
2022/08/22 00:59:12;;;;;;;7.65;1.75;;;13.70;66.50;;;;;;4207891;28;20068;-84
2022/08/22 01:01:18;;;;;;;3.83;1.63;;;13.60;65.90;;;;;;4208837;28;20024;-85
2022/08/22 01:03:31;;;;;;;5.25;1.55;;;13.60;66.60;;;;;;4208840;28;20025;-84
2022/08/22 01:06:01;;;;;;;5.88;1.80;;;13.50;66.70;;;;;;4215579;28;20155;-83
2022/08/22 01:08:22;;;;;;;7.35;1.25;;;13.50;66.90;;;;;;4195620;28;20586;-84
2022/08/22 01:10:23;;;;;;;5.35;1.58;;;13.50;66.80;;;;;;4185595;28;20032;-83
2022/08/22 01:12:57;;;;;;;3.03;1.30;;;13.50;66.80;;;;;;4194988;28;20105;-84
2022/08/22 01:15:10;;;;;;;6.95;1.60;;;13.50;67.10;;;;;;4193685;28;20056;-83
2022/08/22 01:17:48;;;;;;;8.00;1.65;;;13.50;67.10;;;;;;4199153;28;20069;-83
2022/08/22 01:20:26;;;;;;;5.45;1.42;;;13.40;67.00;;;;;;4194393;28;20776;-83
2022/08/22 01:22:42;;;;;;;6.93;1.35;;;13.40;66.80;;;;;;4199010;28;20516;-84
2022/08/22 01:25:20;;;;;;;9.68;1.70;;;13.40;66.80;;;;;;4199669;28;20065;-83
2022/08/22 01:28:08;;;;;;;6.03;1.55;;;13.30;67.00;;;;;;4197090;28;20086;-83
2022/08/22 01:30:20;;;;;;;5.18;1.60;;;13.30;67.30;;;;;;4150164;28;20037;-83
2022/08/22 01:32:30;;;;;;;6.70;1.52;;;13.30;66.80;;;;;;4193767;28;20063;-83
2022/08/22 01:34:49;;;;;;;4.38;1.25;;;13.30;66.90;;;;;;4194265;28;20032;-83
2022/08/22 01:37:12;;;;;;;5.53;1.38;;;13.20;66.70;;;;;;4201252;28;20028;-84
2022/08/22 01:39:37;;;;;;;3.08;1.42;;;13.20;67.00;;;;;;4195322;28;20047;-84
2022/08/22 01:41:57;;;;;;;5.22;1.73;;;13.20;67.10;;;;;;4192620;28;20042;-83
2022/08/22 01:44:16;;;;;;;4.60;1.25;;;13.20;66.80;;;;;;4212647;28;20019;-83
2022/08/22 01:46:47;;;;;;;4.65;1.38;;;13.10;67.20;;;;;;4213956;28;20012;-84
2022/08/22 01:48:58;;;;;;;4.85;1.50;;;13.10;67.10;;;;;;4205963;28;20923;-84
2022/08/22 01:51:35;;;;;;;3.58;1.30;;;13.10;67.00;;;;;;4200888;28;20035;-84
2022/08/22 01:53:44;;;;;;;4.53;1.50;;;13.00;67.20;;;;;;4203410;28;20046;-83
2022/08/22 01:56:09;;;;;;;5.10;1.60;;;13.00;67.00;;;;;;4201860;28;20099;-85
2022/08/22 01:58:20;;;;;;;5.45;1.80;;;13.00;67.50;;;;;;4202256;28;20028;-85
2022/08/22 02:00:24;;;;;;;4.22;1.55;;;13.00;67.40;;;;;;4205470;28;20057;-84
2022/08/22 02:02:51;;;;;;;4.20;1.30;;;13.00;67.40;;;;;;4208657;28;20032;-85
2022/08/22 02:05:04;;;;;;;7.55;1.63;;;13.00;67.70;;;;;;4216357;28;20019;-84
2022/08/22 02:07:17;;;;;;;8.02;1.83;;;13.00;67.50;;;;;;4203011;28;20033;-84
2022/08/22 02:09:45;;;;;;;7.90;1.92;;;12.90;67.70;;;;;;4186690;28;20090;-85
2022/08/22 02:11:52;;;;;;;5.93;1.65;;;12.90;67.90;;;;;;4197856;28;20032;-84
2022/08/22 02:14:17;;;;;;;5.55;1.45;;;12.90;67.60;;;;;;4204910;28;20047;-84
2022/08/22 02:16:36;;;;;;;4.82;1.45;;;12.90;67.90;;;;;;4199669;28;20025;-84
2022/08/22 02:18:58;;;;;;;8.13;1.30;;;12.90;67.90;;;;;;4199561;28;20134;-85
2022/08/22 02:21:15;;;;;;;2.95;1.15;;;12.80;67.70;;;;;;4202056;28;20059;-84
2022/08/22 02:23:29;;;;;;;5.00;1.30;;;12.80;67.90;;;;;;4206837;28;20028;-84
2022/08/22 02:25:52;;;;;;;3.13;1.27;;;12.80;67.80;;;;;;4201613;28;20100;-84
2022/08/22 02:27:56;;;;;;;5.38;1.67;;;12.80;68.00;;;;;;4181418;28;20044;-83
2022/08/22 02:30:28;;;;;;;3.78;1.40;;;12.80;68.10;;;;;;4201640;28;20111;-84
2022/08/22 02:32:43;;;;;;;3.67;1.33;;;12.80;68.20;;;;;;4196848;28;20539;-84
2022/08/22 02:34:55;;;;;;;4.78;1.30;;;12.80;68.30;;;;;;4204062;28;22141;-84
2022/08/22 02:37:30;;;;;;;5.75;1.20;;;12.80;68.50;;;;;;4190147;28;20093;-85
2022/08/22 02:39:56;;;;;;;7.90;1.67;;;12.80;68.70;;;;;;4207133;28;20091;-84
2022/08/22 02:42:18;;;;;;;7.85;1.55;;;12.70;68.60;;;;;;4144100;28;20028;-84
2022/08/22 02:44:46;;;;;;;4.20;1.40;;;12.80;68.70;;;;;;4212643;28;20048;-84
2022/08/22 02:47:19;;;;;;;3.30;1.45;;;12.70;69.00;;;;;;4196657;28;20038;-85
2022/08/22 02:49:32;;;;;;;2.75;1.52;;;12.70;68.70;;;;;;4198861;28;20024;-84
2022/08/22 02:51:54;;;;;;;6.07;1.60;;;12.70;69.40;;;;;;4203084;28;20101;-84
2022/08/22 02:54:37;;;;;;;16.08;2.00;;;12.70;69.00;;;;;;4218093;28;20034;-84
2022/08/22 02:56:44;;;;;;;7.43;1.80;;;12.70;69.40;;;;;;4153324;28;20069;-85
2022/08/22 02:58:55;;;;;;;5.65;1.55;;;12.70;68.90;;;;;;4153676;28;20554;-86
2022/08/22 03:01:02;;;;;;;5.97;2.05;;;12.70;68.90;;;;;;4158847;28;20044;-85
2022/08/22 03:03:05;;;;;;;6.57;1.80;;;12.70;69.00;;;;;;4157562;28;20049;-84
2022/08/22 03:05:35;;;;;;;8.57;1.60;;;12.70;69.00;;;;;;4138033;28;20397;-84
2022/08/22 03:07:42;;;;;;;5.05;1.58;;;12.60;70.10;;;;;;4137688;28;20525;-85
2022/08/22 03:10:04;;;;;;;6.88;1.85;;;12.70;69.10;;;;;;4145918;28;20092;-85
2022/08/22 03:12:18;;;;;;;4.07;1.50;;;12.70;69.40;;;;;;4137545;28;20065;-84
2022/08/22 03:14:32;;;;;;;11.70;1.90;;;12.70;69.20;;;;;;4154437;28;20040;-84
2022/08/22 03:16:36;;;;;;;4.40;1.67;;;12.70;69.20;;;;;;4154237;28;20042;-84
2022/08/22 03:18:55;;;;;;;4.50;1.77;;;12.60;69.10;;;;;;4141264;28;20145;-84
2022/08/22 03:21:10;;;;;;;6.78;1.88;;;12.60;69.20;;;;;;4139927;28;20042;-84
2022/08/22 03:23:41;;;;;;;9.93;1.70;;;12.60;69.20;;;;;;4153090;28;20038;-83
2022/08/22 03:26:10;;;;;;;5.63;1.75;;;12.60;69.40;;;;;;4137660;28;20046;-84
2022/08/22 03:28:26;;;;;;;5.45;1.63;;;12.60;69.40;;;;;;4156272;28;20036;-83
2022/08/22 03:30:35;;;;;;;4.90;1.25;;;12.60;69.40;;;;;;4138584;28;20038;-85
2022/08/22 03:32:58;;;;;;;7.70;1.80;;;12.60;69.30;;;;;;4162354;28;20043;-85
2022/08/22 03:35:08;;;;;;;6.03;1.67;;;12.60;69.50;;;;;;4199036;28;20039;-85
2022/08/22 03:37:19;;;;;;;6.30;1.85;;;12.60;69.30;;;;;;4201310;28;20032;-84
2022/08/22 03:39:36;;;;;;;8.82;1.92;;;12.50;69.30;;;;;;4197873;28;20028;-84
2022/08/22 03:41:53;;;;;;;8.40;1.98;;;12.50;69.30;;;;;;4201280;28;20024;-85
2022/08/22 03:44:34;;;;;;;3.92;1.50;;;12.50;69.40;;;;;;4204643;28;20115;-84
2022/08/22 03:47:12;;;;;;;3.15;1.65;;;12.50;69.60;;;;;;4195203;28;20036;-84
2022/08/22 03:49:13;;;;;;;5.30;1.67;;;12.50;69.50;;;;;;4196270;28;20036;-85
2022/08/22 03:51:25;;;;;;;5.45;1.90;;;12.50;69.30;;;;;;4198153;28;20590;-84
2022/08/22 03:53:53;;;;;;;5.97;1.98;;;12.50;69.30;;;;;;4186347;28;20055;-82
2022/08/22 03:56:37;;;;;;;13.48;2.40;;;12.50;69.60;;;;;;4195444;28;20029;-82
2022/08/22 03:58:53;;;;;;;4.30;2.05;;;12.40;69.80;;;;;;4200632;28;20059;-84
2022/08/22 04:01:23;;;;;;;4.13;1.90;;;12.40;69.70;;;;;;4182397;28;20041;-82
2022/08/22 04:04:00;;;;;;;6.45;1.70;;;12.40;69.70;;;;;;4195618;28;20032;-82
2022/08/22 04:06:34;;;;;;;6.70;1.80;;;12.40;70.00;;;;;;4181910;28;20032;-83
2022/08/22 04:09:03;;;;;;;5.77;2.13;;;12.40;70.30;;;;;;4195910;28;20441;-84
2022/08/22 04:11:30;;;;;;;5.03;2.17;;;12.40;70.40;;;;;;4208520;28;20046;-84
2022/08/22 04:13:57;;;;;;;5.65;1.33;;;12.40;70.10;;;;;;4206301;28;20027;-83
2022/08/22 04:16:07;;;;;;;5.68;2.00;;;12.40;70.20;;;;;;4209472;28;20034;-84
2022/08/22 04:18:07;;;;;;;10.43;2.20;;;12.40;70.10;;;;;;4180160;28;20029;-84
2022/08/22 04:20:22;;;;;;;6.00;1.85;;;12.30;70.00;;;;;;4193076;28;20063;-83
2022/08/22 04:22:52;;;;;;;9.40;2.33;;;12.30;70.20;;;;;;4191867;28;20504;-83
2022/08/22 04:25:06;;;;;;;4.93;2.08;;;12.30;70.20;;;;;;4117126;28;20049;-83
2022/08/22 04:27:20;;;;;;;7.25;2.22;;;12.30;70.10;;;;;;4141791;28;20041;-83
2022/08/22 04:29:29;;;;;;;6.25;1.92;;;12.30;70.10;;;;;;4152224;28;20422;-83
2022/08/22 04:31:40;;;;;;;5.72;1.95;;;12.30;70.10;;;;;;4140900;28;20068;-84
2022/08/22 04:33:56;;;;;;;5.25;1.92;;;12.30;70.00;;;;;;4148427;28;20053;-84
2022/08/22 04:36:16;;;;;;;4.32;1.90;;;12.30;70.20;;;;;;4152398;28;20049;-83
2022/08/22 04:38:27;;;;;;;9.82;2.17;;;12.30;70.30;;;;;;4134626;28;20033;-83
2022/08/22 04:40:30;;;;;;;3.92;1.90;;;12.30;70.40;;;;;;4131144;28;20475;-84
2022/08/22 04:42:33;;;;;;;;;;;12.30;70.50;;;;;;4131197;28;20037;-83
2022/08/22 04:44:41;;;;;;;11.93;1.73;;;12.30;71.10;;;;;;4148972;28;19913;-84
2022/08/22 04:47:03;;;;;;;4.85;1.60;;;12.30;70.30;;;;;;4143990;28;20036;-83
2022/08/22 04:49:32;;;;;;;10.50;1.73;;;12.30;70.40;;;;;;4139491;28;20077;-84
2022/08/22 04:51:55;;;;;;;4.35;1.73;;;12.30;70.50;;;;;;4139155;28;20066;-83
2022/08/22 04:54:05;;;;;;;9.93;2.05;;;12.30;70.70;;;;;;4155990;28;20037;-83
2022/08/22 04:56:25;;;;;;;7.57;2.20;;;12.30;70.50;;;;;;4128076;28;20125;-83
2022/08/22 04:58:58;;;;;;;7.15;1.85;;;12.30;70.70;;;;;;4141212;28;20022;-84
2022/08/22 05:01:22;;;;;;;8.23;2.55;;;12.30;70.90;;;;;;4156720;28;20029;-81
2022/08/22 05:03:25;;;;;;;6.40;2.30;;;12.30;71.10;;;;;;4224784;27;20087;-81
2022/08/22 05:05:38;;;;;;;7.55;2.25;;;12.40;71.10;;;;;;4206928;28;20048;-81
2022/08/22 05:07:46;;;;;;;4.65;1.90;;;12.40;71.40;;;;;;4201642;28;20024;-81
2022/08/22 05:09:51;;;;;;;11.27;2.30;;;12.40;71.30;;;;;;4212310;28;20410;-81
2022/08/22 05:11:56;;;;;;;5.97;2.15;;;12.40;71.40;;;;;;4207762;28;20033;-81
2022/08/22 05:14:04;;;;;;;8.50;2.00;;;12.50;71.60;;;;;;4208782;28;20047;-81
2022/08/22 05:16:11;;;;;;;6.15;1.90;;;12.50;71.60;;;;;;4207627;28;20035;-81
2022/08/22 05:18:24;;;;;;;4.97;2.15;;;12.60;71.80;;;;;;4211166;28;20031;-81
2022/08/22 05:20:27;;;;;;;9.27;1.90;;;12.60;72.10;;;;;;4207104;28;20561;-81
2022/08/22 05:22:31;;;;;;;3.47;1.90;;;12.60;72.20;;;;;;4206351;28;20032;-81
2022/08/22 05:24:45;;;;;;;7.35;1.92;;;12.70;72.50;;;;;;4210989;28;20267;-81
2022/08/22 05:26:51;;;;;;;6.20;2.08;;;12.80;72.80;;;;;;4211318;28;20043;-81
2022/08/22 05:29:01;;;;;;;7.68;2.22;;;12.80;72.80;;;;;;4207259;28;20115;-82
2022/08/22 05:31:07;;;;;;;9.13;2.25;;;12.90;73.20;;;;;;4207611;28;20024;-81
2022/08/22 05:33:19;;;;;;;6.53;2.38;;;12.90;73.30;;;;;;4211497;28;20029;-81
2022/08/22 05:35:41;;;;;;;7.40;2.70;;;13.00;73.70;;;;;;4208836;28;20043;-81
2022/08/22 05:37:48;;;;;;;10.48;2.90;;;13.10;73.90;;;;;;4208641;28;20415;-81
2022/08/22 05:39:57;;;;;;;9.02;3.00;;;13.20;74.00;;;;;;4205897;28;20052;-81
2022/08/22 05:42:01;;;;;;;9.98;2.90;;;13.30;74.40;;;;;;4208166;28;20027;-81
2022/08/22 05:44:03;;;;;;;6.70;3.17;;;13.40;74.60;;;;;;4202135;28;20037;-81
2022/08/22 05:46:08;;;;;;;11.23;2.80;;;13.40;74.90;;;;;;4191527;28;20032;-81
2022/08/22 05:48:24;;;;;;;10.38;3.00;;;13.60;75.30;;;;;;4209459;28;20444;-81
2022/08/22 05:50:48;;;;;;;7.13;2.72;;;13.60;76.00;;;;;;4211636;28;20044;-81
2022/08/22 05:52:48;;;;;;;;;;;13.80;76.40;;;;;;4206374;28;20119;-81
2022/08/22 05:54:56;;;;;;;7.50;2.35;;;13.90;77.40;;;;;;4202845;28;20340;-81
2022/08/22 05:57:15;;;;;;;9.27;2.50;;;14.00;76.20;;;;;;4208000;28;20032;-81
2022/08/22 05:59:30;;;;;;;9.38;2.28;;;14.20;76.70;;;;;;4206210;28;20058;-81
2022/08/22 06:01:45;;;;;;;8.02;2.40;;;14.30;76.70;;;;;;4205296;28;20024;-81
2022/08/22 06:03:54;;;;;;;9.35;2.00;;;14.40;76.90;;;;;;4202825;28;20020;-81
2022/08/22 06:05:58;;;;;;;3.83;1.88;;;14.60;77.90;;;;;;4209031;28;20030;-80
2022/08/22 06:08:21;;;;;;;8.20;2.08;;;14.60;77.20;;;;;;4202663;28;20043;-81
2022/08/22 06:10:45;;;;;;;14.73;2.42;;;14.80;77.50;;;;;;4210681;28;20031;-81
2022/08/22 06:13:04;;;;;;;6.30;1.65;;;15.00;77.20;;;;;;4203666;28;20032;-81
2022/08/22 06:15:04;;;;;;;7.55;1.83;;;15.10;77.10;;;;;;4204091;28;20107;-81
2022/08/22 06:17:10;;;;;;;12.60;2.42;;;15.20;76.90;;;;;;4200529;28;20021;-81
2022/08/22 06:19:16;;;;;;;9.85;1.63;;;15.40;76.90;;;;;;4210124;28;20192;-82
2022/08/22 06:21:37;;;;;;;12.18;1.98;;;15.50;76.70;;;;;;4203894;28;20031;-81
2022/08/22 06:23:45;;;;;;;8.88;1.55;;;15.60;76.50;;;;;;4190302;28;20116;-81
2022/08/22 06:25:50;;;;;;;7.63;1.55;;;15.70;76.30;;;;;;4203545;28;20594;-81
2022/08/22 06:27:56;;;;;;;10.18;1.70;;;15.80;76.10;;;;;;4203894;28;20028;-81
2022/08/22 06:30:00;;;;;;;7.32;1.70;;;15.90;75.90;;;;;;4207108;28;20028;-81
2022/08/22 06:32:11;;;;;;;3.92;1.48;;;16.10;75.70;;;;;;4202805;28;20036;-81
2022/08/22 06:34:24;;;;;;;6.82;1.60;;;16.20;75.20;;;;;;4204705;28;20020;-81
2022/08/22 06:36:32;;;;;;;;;;;16.30;74.90;;;;;;4201922;28;20059;-82
2022/08/22 06:39:07;;;;;;;9.68;1.40;;;16.40;74.70;;;;;;4202586;28;20334;-81
2022/08/22 06:41:09;;;;;;;9.63;1.73;;;16.60;74.10;;;;;;4205745;28;20059;-82
2022/08/22 06:43:11;;;;;;;6.72;1.52;;;16.70;73.90;;;;;;4200097;28;20040;-82
2022/08/22 06:45:26;;;;;;;10.52;1.70;;;16.80;73.60;;;;;;4206504;28;20034;-81
2022/08/22 06:47:41;;;;;;;7.40;1.33;;;16.90;72.90;;;;;;4203970;28;20028;-81
2022/08/22 06:49:44;;;;;;;11.57;1.92;;;17.00;72.60;;;;;;4208472;28;20024;-82
2022/08/22 06:51:46;;;;;;;8.38;1.80;;;17.10;72.30;;;;;;4205017;28;20032;-82
2022/08/22 06:53:52;;;;;;;6.75;2.17;;;17.20;72.00;;;;;;4206148;28;20024;-82
2022/08/22 06:55:56;;;;;;;9.32;1.90;;;17.30;71.60;;;;;;4199397;28;20040;-81
2022/08/22 06:58:10;;;;;;;9.25;1.48;;;17.40;71.10;;;;;;4201919;28;20117;-81
2022/08/22 07:00:14;;;;;;;9.52;1.83;;;17.50;70.70;;;;;;4203128;28;20024;-82
2022/08/22 07:02:21;;;;;;;8.07;1.85;;;17.60;70.40;;;;;;4208914;28;20024;-82
2022/08/22 07:04:25;;;;;;;10.20;1.73;;;17.70;70.10;;;;;;4204378;28;21717;-82
2022/08/22 07:06:49;;;;;;;5.43;1.15;;;17.80;69.40;;;;;;4203347;28;20047;-82
2022/08/22 07:08:54;;;;;;;10.52;1.67;;;17.90;69.00;;;;;;4201267;28;20040;-82
2022/08/22 07:11:15;;;;;;;8.75;1.50;;;18.00;68.30;;;;;;4205858;28;20886;-82
2022/08/22 07:13:18;;;;;;;10.77;1.60;;;18.10;67.20;;;;;;4203646;28;20028;-82
2022/08/22 07:15:39;;;;;;;10.45;1.88;;;18.10;65.70;;;;;;4206548;28;20070;-82
2022/08/22 07:17:53;;;;;;;9.48;1.48;;;18.20;63.40;;;;;;4208036;28;20844;-81
2022/08/22 07:20:28;;;;;;;6.03;1.30;;;18.30;64.50;;;;;;4207625;28;20031;-82
2022/08/22 07:22:32;;;;;;;6.60;1.30;;;18.40;64.80;;;;;;4204973;28;20036;-82
2022/08/22 07:24:32;;;;;;;9.68;2.05;;;18.50;65.00;;;;;;4204919;28;20107;-82
2022/08/22 07:26:56;;;;;;;6.30;1.17;;;18.60;64.40;;;;;;4202018;28;20397;-81
2022/08/22 07:28:56;;;;;;;9.75;1.95;;;18.60;62.30;;;;;;4198844;28;20123;-81
2022/08/22 07:31:02;;;;;;;14.18;2.33;;;18.70;63.20;;;;;;4203333;28;20089;-81
2022/08/22 07:33:07;;;;;;;8.32;1.50;;;18.80;63.50;;;;;;4201674;28;20029;-82
2022/08/22 07:35:14;;;;;;;7.10;1.17;;;18.90;63.00;;;;;;4200401;28;20035;-81
2022/08/22 07:37:33;;;;;;;4.82;1.40;;;19.00;62.30;;;;;;4198196;28;20028;-81
2022/08/22 07:39:48;;;;;;;6.82;1.35;;;19.10;61.90;;;;;;4202505;28;20029;-80
2022/08/22 07:42:21;;;;;;;6.25;1.38;;;19.30;62.20;;;;;;4215101;28;20024;-81
2022/08/22 07:44:25;;;;;;;4.15;1.10;;;19.40;61.70;;;;;;4181627;28;20028;-81
2022/08/22 07:46:26;;;;;;;9.18;1.45;;;19.50;61.70;;;;;;4200772;28;20023;-81
2022/08/22 07:48:42;;;;;;;5.13;1.77;;;19.60;61.10;;;;;;4199569;28;20345;-81
2022/08/22 07:50:59;;;;;;;5.82;1.60;;;19.70;60.10;;;;;;4198758;28;20028;-82
2022/08/22 07:53:15;;;;;;;8.93;1.42;;;19.80;59.60;;;;;;4202378;28;20047;-81
2022/08/22 07:55:21;;;;;;;6.75;1.42;;;19.90;59.50;;;;;;4209820;28;20056;-82
2022/08/22 07:57:28;;;;;;;5.43;1.48;;;20.00;59.10;;;;;;4203627;28;20051;-81
2022/08/22 07:59:34;;;;;;;8.73;1.48;;;20.10;58.90;;;;;;4203534;28;20032;-81
2022/08/22 08:01:36;;;;;;;6.63;1.60;;;20.20;58.60;;;;;;4202851;28;20433;-81
2022/08/22 08:03:37;;;;;;;2.55;0.90;;;20.20;57.90;;;;;;4204529;28;20077;-81
2022/08/22 08:05:44;;;;;;;12.00;1.75;;;20.30;57.50;;;;;;4204997;28;20087;-81
2022/08/22 08:07:46;;;;;;;3.60;1.30;;;20.30;57.60;;;;;;4203057;28;20395;-82
2022/08/22 08:09:58;;;;;;;5.20;1.08;;;20.40;57.10;;;;;;4200564;28;20227;-82
2022/08/22 08:12:02;;;;;;;8.18;1.95;;;20.50;57.40;;;;;;4198937;28;20114;-81
2022/08/22 08:14:09;;;;;;;5.35;1.20;;;20.50;55.80;;;;;;4202935;28;20032;-81
2022/08/22 08:16:16;;;;;;;8.43;1.20;;;20.60;56.40;;;;;;4201765;28;20527;-81
2022/08/22 08:18:24;;;;;;;3.90;1.38;;;20.60;56.30;;;;;;4200786;28;20036;-81
2022/08/22 08:20:28;;;;;;;6.82;1.10;;;20.70;55.80;;;;;;4201415;28;20039;-81
2022/08/22 08:22:29;;;;;;;4.57;1.23;;;20.70;55.80;;;;;;4196687;28;22268;-81
2022/08/22 08:24:44;;;;;;;9.77;1.73;;;20.70;55.50;;;;;;4199094;28;20021;-82
2022/08/22 08:29:17;;;;;;;3.75;1.30;;;20.90;55.60;;;;;;4203123;28;20025;-81
2022/08/22 08:31:23;;;;;;;7.05;1.33;;;21.00;55.80;;;;;;4203433;28;20457;-81
2022/08/22 08:33:28;;;;;;;10.20;1.58;;;21.00;55.40;;;;;;4206419;28;20186;-81
2022/08/22 08:35:36;;;;;;;4.38;1.10;;;21.10;55.10;;;;;;4207646;28;20032;-81
2022/08/22 08:37:55;;;;;;;7.40;1.33;;;21.20;54.70;;;;;;4205064;28;20719;-81
2022/08/22 08:39:58;;;;;;;5.03;1.48;;;21.30;54.20;;;;;;4208247;28;20137;-81
2022/08/22 08:42:04;;;;;;;5.30;1.10;;;21.30;54.30;;;;;;4205110;28;20488;-81
2022/08/22 08:44:21;;;;;;;7.50;1.13;;;21.50;54.20;;;;;;4209537;28;20040;-81
2022/08/22 08:46:56;;;;;;;5.47;1.30;;;21.50;53.90;;;;;;4204419;28;20036;-81
2022/08/22 08:49:15;;;;;;;8.65;1.45;;;21.70;52.80;;;;;;4204136;28;20055;-82
2022/08/22 08:51:21;;;;;;;8.48;1.20;;;21.80;52.10;;;;;;4204298;28;20492;-81
2022/08/22 08:53:38;;;;;;;9.95;1.30;;;21.90;52.00;;;;;;4204395;28;20571;-82
2022/08/22 08:56:17;;;;;;;6.60;2.35;;;22.00;51.10;;;;;;4209312;28;20036;-82
2022/08/22 08:59:00;;;;;;;2.92;1.10;;;22.10;50.80;;;;;;4204927;28;20016;-82
2022/08/22 09:01:21;;;;;;;6.28;1.30;;;22.10;50.30;;;;;;4221736;27;21748;-82
2022/08/22 09:03:37;;;;;;;5.15;1.17;;;22.20;50.70;;;;;;4203837;28;20044;-83
2022/08/22 09:06:10;;;;;;;3.65;1.23;;;22.20;50.20;;;;;;4210009;28;20095;-80
2022/08/22 09:08:47;;;;;;;6.32;1.75;;;22.20;50.30;;;;;;4185563;28;20579;-81
2022/08/22 09:11:24;;;;;;;6.72;1.48;;;22.20;50.10;;;;;;4189128;28;20095;-81
2022/08/22 09:14:15;;;;;;;5.07;1.27;;;22.20;50.20;;;;;;4171750;28;20520;-81
2022/08/22 09:16:37;;;;;;;3.70;1.42;;;22.20;49.90;;;;;;4126464;28;20092;-82
2022/08/22 09:18:46;;;;;;;4.68;1.30;;;22.20;50.50;;;;;;4141507;28;20041;-82
2022/08/22 09:21:10;;;;;;;4.82;1.35;;;22.20;50.60;;;;;;4140351;28;20538;-84
2022/08/22 09:23:40;;;;;;;6.47;1.50;;;22.20;49.70;;;;;;4143884;28;20041;-82
2022/08/22 09:26:08;;;;;;;6.68;1.65;;;22.20;50.70;;;;;;4140568;28;20506;-82
2022/08/22 09:28:28;;;;;;;5.72;1.50;;;22.20;50.80;;;;;;4140210;28;20034;-83
2022/08/22 09:30:48;;;;;;;5.65;1.38;;;22.20;51.00;;;;;;4141616;28;20185;-83
2022/08/22 09:33:03;;;;;;;7.15;1.52;;;22.20;49.50;;;;;;4140713;28;20457;-84
2022/08/22 09:35:17;;;;;;;12.25;2.50;;;22.10;49.20;;;;;;4140628;28;20458;-81
2022/08/22 09:37:39;;;;;;;5.75;1.20;;;22.10;49.00;;;;;;4141358;28;20034;-81
2022/08/22 09:40:16;;;;;;;7.15;1.75;;;22.00;49.30;;;;;;4144270;28;20560;-83
2022/08/22 09:42:30;;;;;;;10.35;2.45;;;21.90;49.30;;;;;;4140112;28;20106;-84
2022/08/22 09:44:39;;;;;;;7.00;1.40;;;21.80;49.80;;;;;;4121912;28;20537;-83
2022/08/22 09:47:01;;;;;;;7.95;1.70;;;21.70;49.20;;;;;;4144077;28;20528;-81
2022/08/22 09:49:02;;;;;;;2.47;1.15;;;21.50;48.40;;;;;;4143373;28;20810;-82
2022/08/22 09:51:33;;;;;;;6.57;1.42;;;21.40;49.10;;;;;;4198356;28;20047;-83
2022/08/22 09:53:49;;;;;;;6.22;1.67;;;21.30;49.80;;;;;;4202715;28;20028;-82
2022/08/22 09:56:10;;;;;;;5.97;1.25;;;21.20;49.20;;;;;;4203424;28;20456;-83
2022/08/22 09:58:22;;;;;;;9.65;2.00;;;21.20;49.80;;;;;;4202810;28;20020;-84
2022/08/22 10:00:30;;;;;;;9.80;1.50;;;21.10;50.60;;;;;;4205295;28;20101;-84
2022/08/22 10:02:36;;;;;;;6.38;1.38;;;21.00;51.30;;;;;;4202268;28;20495;-83
2022/08/22 10:05:11;;;;;;;12.73;1.77;;;21.00;51.60;;;;;;4204692;28;20274;-82
2022/08/22 10:07:34;;;;;;;6.65;1.33;;;21.00;51.70;;;;;;4199590;28;20024;-84
2022/08/22 10:09:58;;;;;;;5.40;1.40;;;21.00;51.90;;;;;;4208487;28;20546;-83
2022/08/22 10:12:05;;;;;;;6.68;1.45;;;20.90;51.10;;;;;;4205573;28;20031;-84
2022/08/22 10:14:19;;;;;;;7.57;1.27;;;20.90;51.50;;;;;;4201612;28;20033;-83
2022/08/22 10:16:22;;;;;;;7.78;1.27;;;20.90;52.20;;;;;;4206406;28;20047;-83
2022/08/22 10:18:51;;;;;;;6.95;1.67;;;20.90;52.50;;;;;;4202813;28;20075;-84
2022/08/22 10:21:04;;;;;;;5.25;1.30;;;20.90;52.50;;;;;;4205258;28;20029;-84
2022/08/22 10:23:20;;;;;;;4.45;1.42;;;20.90;52.60;;;;;;4202861;28;20427;-83
2022/08/22 10:25:27;;;;;;;6.88;1.40;;;21.00;52.40;;;;;;4204452;28;20039;-84
2022/08/22 10:27:52;;;;;;;11.00;1.58;;;21.00;51.70;;;;;;4209800;28;20028;-83
2022/08/22 10:30:13;;;;;;;8.18;1.88;;;21.10;51.50;;;;;;4199044;28;20021;-82
2022/08/22 10:32:53;;;;;;;6.20;1.67;;;21.10;51.20;;;;;;4209831;28;20082;-82
2022/08/22 10:35:17;;;;;;;12.27;1.65;;;21.20;50.40;;;;;;4186270;28;20047;-81
2022/08/22 10:37:23;;;;;;;;;;;21.20;50.50;;;;;;4202629;28;20044;-80
2022/08/22 10:39:32;;;;;;;6.97;1.33;;;21.30;50.70;;;;;;4206258;28;20462;-82
2022/08/22 10:41:40;;;;;;;5.00;1.15;;;21.30;50.50;;;;;;4205520;28;20060;-83
2022/08/22 10:43:50;;;;;;;6.15;1.88;;;21.40;50.60;;;;;;4204140;28;20077;-82
2022/08/22 10:46:04;;;;;;;3.67;1.02;;;21.40;49.90;;;;;;4204156;28;20024;-81
2022/08/22 10:48:05;;;;;;;4.65;1.00;;;21.40;49.80;;;;;;4203249;28;20486;-82
2022/08/22 10:50:22;;;;;;;5.28;1.13;;;21.40;49.90;;;;;;4201702;28;20025;-82
2022/08/22 10:52:36;;;;;;;4.68;1.13;;;21.40;49.90;;;;;;4191268;28;20036;-82
2022/08/22 10:54:49;;;;;;;5.55;1.70;;;21.40;49.90;;;;;;4204298;28;20031;-82
2022/08/22 10:57:17;;;;;;;4.18;1.30;;;21.40;49.40;;;;;;4206261;28;20040;-82
2022/08/22 10:59:39;;;;;;;4.88;1.20;;;21.40;49.80;;;;;;4154249;28;20033;-83
2022/08/22 11:01:56;;;;;;;7.03;1.00;;;21.40;49.90;;;;;;4150010;28;20073;-82
2022/08/22 11:04:28;;;;;;;5.65;1.13;;;21.40;49.90;;;;;;4149476;28;20172;-82
2022/08/22 11:06:42;;;;;;;4.80;1.10;;;21.30;50.40;;;;;;4156560;28;20045;-82
2022/08/22 11:08:55;;;;;;;3.92;0.93;;;21.30;50.50;;;;;;4142083;28;20038;-82
2022/08/22 11:11:18;;;;;;;6.55;0.90;;;21.30;50.50;;;;;;4140077;28;20049;-81
2022/08/22 11:13:50;;;;;;;5.82;1.10;;;21.20;50.50;;;;;;4152057;28;20068;-80
2022/08/22 11:16:13;;;;;;;6.50;0.90;;;21.20;50.00;;;;;;4150130;28;20041;-82
2022/08/22 11:18:13;;;;;;;7.03;1.20;;;21.20;50.10;;;;;;4142331;28;20026;-82
2022/08/22 11:20:27;;;;;;;9.05;1.17;;;21.20;50.20;;;;;;4156841;28;20029;-83
2022/08/22 11:22:46;;;;;;;4.15;1.33;;;21.20;50.10;;;;;;4156262;28;20033;-82
2022/08/22 11:25:17;;;;;;;5.03;1.50;;;21.20;48.80;;;;;;4140005;28;20034;-82
2022/08/22 11:27:30;;;;;;;3.80;0.93;;;21.30;49.10;;;;;;4140666;28;20130;-82
2022/08/22 11:30:01;;;;;;;7.55;1.73;;;21.30;48.30;;;;;;4140665;28;20035;-82
2022/08/22 11:32:20;;;;;;;6.75;1.45;;;21.30;47.30;;;;;;4139656;28;20073;-80
2022/08/22 11:34:26;;;;;;;5.05;1.13;;;21.40;47.00;;;;;;4142086;28;20044;-82
2022/08/22 11:36:31;;;;;;;4.55;0.93;;;21.50;48.40;;;;;;4171445;28;20040;-81
2022/08/22 11:38:59;;;;;;;3.70;0.98;;;21.50;48.00;;;;;;4201549;28;20049;-83
2022/08/22 11:41:04;;;;;;;2.17;1.00;;;21.50;47.70;;;;;;4197975;28;20166;-82
2022/08/22 11:43:29;;;;;;;7.28;1.25;;;21.60;48.20;;;;;;4209610;28;20032;-82
2022/08/22 11:45:39;;;;;;;3.67;0.90;;;21.60;48.20;;;;;;4206963;28;20025;-81
2022/08/22 11:47:50;;;;;;;6.88;1.05;;;21.70;48.60;;;;;;4209958;28;20024;-81
2022/08/22 11:50:00;;;;;;;;;;;21.70;48.20;;;;;;4204156;28;20040;-82
2022/08/22 11:52:09;;;;;;;3.30;1.17;;;21.70;47.40;;;;;;4205377;28;19916;-82